createdAt,value
2022-08-31T00:00:38.048Z,15.70
2022-08-31T00:05:30.851Z,15.60
2022-08-31T00:10:32.559Z,15.50
2022-08-31T00:15:30.233Z,15.50
2022-08-31T00:20:33.955Z,15.40
2022-08-31T00:25:26.898Z,15.40
2022-08-31T00:30:19.156Z,15.40
2022-08-31T00:35:11.546Z,15.30
2022-08-31T00:40:05.645Z,15.20
2022-08-31T00:44:58.028Z,15.20
2022-08-31T00:49:51.898Z,15.20
2022-08-31T00:54:50.305Z,15.20
2022-08-31T00:59:45.796Z,15.20
2022-08-31T01:04:38.438Z,15.20
2022-08-31T01:09:38.174Z,15.10
2022-08-31T01:14:31.117Z,15.20
2022-08-31T01:20:01.998Z,15.20
2022-08-31T01:24:56.300Z,15.20
2022-08-31T01:29:48.559Z,15.10
2022-08-31T01:34:41.193Z,15.10
2022-08-31T01:39:33.575Z,15.00
2022-08-31T01:44:29.964Z,14.90
2022-08-31T01:49:23.846Z,15.00
2022-08-31T01:54:16.801Z,15.00
2022-08-31T01:59:11.475Z,15.00
2022-08-31T02:04:24.182Z,15.10
2022-08-31T02:09:22.445Z,15.00
2022-08-31T02:14:15.999Z,14.90
2022-08-31T02:19:08.961Z,14.70
2022-08-31T02:24:01.466Z,14.70
2022-08-31T02:28:54.053Z,14.60
2022-08-31T02:33:46.896Z,14.50
2022-08-31T02:38:40.461Z,14.50
2022-08-31T02:43:33.293Z,14.50
2022-08-31T02:48:25.586Z,14.50
2022-08-31T02:53:20.397Z,14.40
2022-08-31T02:58:14.018Z,14.50
2022-08-31T03:03:06.697Z,14.50
2022-08-31T03:07:59.108Z,14.50
2022-08-31T03:12:52.962Z,14.50
2022-08-31T03:17:45.500Z,14.50
2022-08-31T03:22:38.880Z,14.40
2022-08-31T03:27:31.782Z,14.20
2022-08-31T03:32:27.519Z,14.20
2022-08-31T03:37:21.789Z,14.30
2022-08-31T03:42:15.130Z,14.10
2022-08-31T03:47:08.285Z,14.00
2022-08-31T03:52:02.510Z,14.00
2022-08-31T03:56:58.620Z,14.00
2022-08-31T04:01:52.458Z,14.00
2022-08-31T04:07:11.044Z,14.00
2022-08-31T04:12:21.833Z,14.00
2022-08-31T04:17:35.609Z,14.00
2022-08-31T04:22:47.882Z,14.00
2022-08-31T04:27:55.304Z,14.00
2022-08-31T04:32:53.349Z,14.00
2022-08-31T04:37:46.903Z,14.10
2022-08-31T04:42:39.525Z,14.20
2022-08-31T04:47:31.823Z,14.30
2022-08-31T04:52:28.292Z,14.50
2022-08-31T04:57:21.259Z,14.70
2022-08-31T05:02:13.621Z,14.90
2022-08-31T05:07:10.422Z,15.20
2022-08-31T05:12:03.229Z,15.50
2022-08-31T05:16:55.516Z,15.80
2022-08-31T05:21:49.906Z,16.10
2022-08-31T05:26:48.864Z,16.40
2022-08-31T05:31:48.043Z,16.80
2022-08-31T05:36:44.673Z,17.10
2022-08-31T05:41:37.012Z,17.50
2022-08-31T05:46:31.235Z,17.80
2022-08-31T05:51:23.965Z,18.00
2022-08-31T05:56:25.473Z,18.30
2022-08-31T06:01:23.691Z,18.70
2022-08-31T06:06:42.384Z,19.00
2022-08-31T06:11:39.892Z,19.50
2022-08-31T06:16:34.129Z,19.80
2022-08-31T06:21:36.076Z,20.30
2022-08-31T06:26:31.604Z,20.90
2022-08-31T06:31:30.623Z,21.60
2022-08-31T06:36:27.120Z,21.90
2022-08-31T06:41:46.724Z,21.70
2022-08-31T06:47:14.402Z,21.20
2022-08-31T06:52:08.094Z,21.20
2022-08-31T06:57:03.030Z,21.20
2022-08-31T07:02:20.984Z,21.50
2022-08-31T07:07:13.848Z,21.70
2022-08-31T07:12:09.487Z,21.80
2022-08-31T07:17:04.098Z,22.10
2022-08-31T07:22:02.718Z,22.60
2022-08-31T07:27:10.190Z,23.80
2022-08-31T07:32:15.935Z,23.90
2022-08-31T07:37:27.618Z,25.80
2022-08-31T07:42:24.921Z,26.20
2022-08-31T07:47:20.641Z,26.00
2022-08-31T07:52:21.147Z,27.30
2022-08-31T07:57:31.383Z,28.40
2022-08-31T08:02:25.478Z,27.20
2022-08-31T08:07:19.130Z,26.40
2022-08-31T08:12:19.797Z,26.10
2022-08-31T08:17:38.546Z,25.60
2022-08-31T08:22:51.831Z,25.40
2022-08-31T08:27:56.265Z,24.90
2022-08-31T08:33:07.297Z,24.80
2022-08-31T08:38:07.721Z,25.00
2022-08-31T08:43:03.041Z,25.60
2022-08-31T08:47:59.450Z,25.60
2022-08-31T08:52:51.800Z,25.30
2022-08-31T08:57:46.638Z,25.20
2022-08-31T09:02:43.512Z,26.00
2022-08-31T09:07:56.507Z,25.90
2022-08-31T09:12:58.291Z,25.70
2022-08-31T09:18:13.962Z,26.40
2022-08-31T09:23:08.235Z,26.50
2022-08-31T09:28:15.758Z,26.60
2022-08-31T09:33:19.206Z,25.90
2022-08-31T09:38:33.957Z,26.80
2022-08-31T09:43:46.143Z,27.30
2022-08-31T09:48:52.344Z,28.20
2022-08-31T09:54:03.410Z,28.60
2022-08-31T09:59:06.118Z,28.20
2022-08-31T10:04:26.230Z,28.30
2022-08-31T10:09:48.673Z,28.30
2022-08-31T10:15:05.764Z,28.20
2022-08-31T10:20:16.664Z,28.70
2022-08-31T10:25:18.455Z,28.50
2022-08-31T10:30:41.792Z,27.70
2022-08-31T10:35:58.871Z,26.10
2022-08-31T10:40:59.564Z,25.70
2022-08-31T10:45:53.588Z,26.20
2022-08-31T10:50:51.842Z,26.60
2022-08-31T10:55:58.738Z,27.00
2022-08-31T11:00:57.424Z,27.50
2022-08-31T11:06:07.654Z,27.60
2022-08-31T11:11:02.721Z,27.70
2022-08-31T11:16:27.472Z,28.20
2022-08-31T11:21:35.891Z,28.60
2022-08-31T11:26:40.767Z,28.30
2022-08-31T11:31:34.678Z,28.00
2022-08-31T11:36:51.292Z,28.20
2022-08-31T11:41:51.139Z,27.20
2022-08-31T11:47:05.134Z,26.10
2022-08-31T11:51:58.596Z,26.20
2022-08-31T11:56:51.021Z,25.90
2022-08-31T12:01:44.487Z,25.50
2022-08-31T12:06:38.123Z,25.70
2022-08-31T12:11:53.778Z,26.20
2022-08-31T12:17:13.485Z,25.80
2022-08-31T12:22:35.534Z,25.60
2022-08-31T12:27:39.773Z,25.70
2022-08-31T12:32:36.459Z,25.80
2022-08-31T12:37:33.233Z,25.40
2022-08-31T12:42:27.046Z,25.90
2022-08-31T12:47:46.603Z,25.50
2022-08-31T12:52:49.099Z,25.30
2022-08-31T12:58:03.546Z,25.20
2022-08-31T13:03:06.413Z,25.10
2022-08-31T13:07:59.534Z,24.90
2022-08-31T13:12:55.262Z,24.70
2022-08-31T13:17:47.744Z,24.30
2022-08-31T13:22:41.471Z,23.80
2022-08-31T13:27:36.539Z,23.50
2022-08-31T13:32:33.102Z,23.60
2022-08-31T13:37:31.519Z,23.80
2022-08-31T13:42:42.895Z,23.90
2022-08-31T13:47:48.791Z,24.10
2022-08-31T13:53:25.290Z,24.20
2022-08-31T13:58:28.774Z,24.20
2022-08-31T14:03:59.718Z,24.50
2022-08-31T14:08:56.384Z,24.30
2022-08-31T14:13:52.916Z,24.50
2022-08-31T14:18:47.343Z,24.50
2022-08-31T14:23:54.074Z,24.40
2022-08-31T14:28:53.478Z,24.30
2022-08-31T14:33:50.616Z,24.00
2022-08-31T14:38:44.107Z,24.30
2022-08-31T14:43:39.160Z,24.30
2022-08-31T14:48:31.497Z,24.00
2022-08-31T14:53:24.251Z,24.00
2022-08-31T14:58:17.716Z,24.00
2022-08-31T15:03:12.084Z,24.10
2022-08-31T15:08:06.259Z,24.20
2022-08-31T15:13:05.730Z,23.80
2022-08-31T15:17:58.177Z,23.40
2022-08-31T15:22:50.705Z,23.20
2022-08-31T15:27:46.790Z,22.90
2022-08-31T15:32:45.471Z,22.70
2022-08-31T15:37:40.236Z,22.60
2022-08-31T15:42:34.282Z,22.70
2022-08-31T15:47:49.750Z,22.70
2022-08-31T15:52:45.747Z,22.50
2022-08-31T15:57:44.944Z,22.60
2022-08-31T16:02:37.528Z,22.50
2022-08-31T16:07:31.046Z,22.30
2022-08-31T16:12:23.525Z,22.20
2022-08-31T16:17:19.388Z,22.00
2022-08-31T16:22:12.245Z,22.00
2022-08-31T16:27:08.245Z,21.90
2022-08-31T16:32:00.715Z,21.90
2022-08-31T16:36:53.728Z,21.90
2022-08-31T16:41:47.214Z,21.80
2022-08-31T16:46:41.217Z,21.70
2022-08-31T16:51:34.063Z,21.60
2022-08-31T16:56:31.514Z,21.60
2022-08-31T17:01:28.292Z,21.60
2022-08-31T17:06:29.054Z,21.50
2022-08-31T17:11:32.391Z,21.40
2022-08-31T17:16:27.970Z,21.30
2022-08-31T17:21:27.182Z,21.30
2022-08-31T17:26:23.197Z,21.20
2022-08-31T17:31:15.697Z,21.20
2022-08-31T17:36:10.137Z,21.10
2022-08-31T17:41:09.327Z,21.00
2022-08-31T17:46:07.142Z,20.90
2022-08-31T17:50:59.547Z,20.80
2022-08-31T17:55:56.330Z,20.70
2022-08-31T18:00:49.677Z,20.60
2022-08-31T18:05:46.801Z,20.50
2022-08-31T18:10:39.484Z,20.30
2022-08-31T18:15:31.976Z,20.20
2022-08-31T18:20:27.556Z,20.10
2022-08-31T18:25:20.513Z,20.00
2022-08-31T18:30:14.077Z,20.00
2022-08-31T18:35:14.286Z,19.90
2022-08-31T18:40:26.615Z,19.90
2022-08-31T18:45:19.689Z,19.80
2022-08-31T18:50:12.649Z,19.70
2022-08-31T18:55:06.500Z,19.60
2022-08-31T19:00:02.767Z,19.50
2022-08-31T19:04:56.373Z,19.50
2022-08-31T19:09:48.965Z,19.40
2022-08-31T19:14:43.533Z,19.40
2022-08-31T19:19:37.126Z,19.40
2022-08-31T19:24:29.469Z,19.40
2022-08-31T19:29:30.126Z,19.40
2022-08-31T19:34:26.050Z,19.30
2022-08-31T19:39:22.964Z,19.30
2022-08-31T19:44:16.308Z,19.20
2022-08-31T19:49:11.429Z,19.10
2022-08-31T19:54:08.958Z,19.00
2022-08-31T19:59:01.256Z,19.00
2022-08-31T20:03:56.653Z,18.90
2022-08-31T20:08:50.528Z,18.70
2022-08-31T20:13:45.073Z,18.50
2022-08-31T20:18:38.409Z,18.40
2022-08-31T20:23:35.781Z,18.30
2022-08-31T20:28:32.948Z,18.30
2022-08-31T20:33:26.915Z,18.30
2022-08-31T20:38:20.590Z,18.10
2022-08-31T20:43:16.174Z,18.00
2022-08-31T20:48:28.321Z,17.90
2022-08-31T20:53:39.051Z,17.70
2022-08-31T20:58:34.645Z,17.70
2022-08-31T21:03:28.253Z,17.60
2022-08-31T21:08:21.041Z,17.60
2022-08-31T21:13:13.534Z,17.40
2022-08-31T21:18:06.045Z,17.20
2022-08-31T21:22:58.273Z,17.00
2022-08-31T21:27:53.112Z,16.80
2022-08-31T21:32:47.564Z,16.70
2022-08-31T21:37:40.503Z,16.50
2022-08-31T21:42:32.959Z,16.40
2022-08-31T21:47:25.391Z,16.40
2022-08-31T21:52:17.849Z,16.40
2022-08-31T21:57:11.149Z,16.20
2022-08-31T22:02:07.233Z,16.00
2022-08-31T22:07:01.022Z,15.90
2022-08-31T22:11:56.637Z,15.90
2022-08-31T22:16:51.397Z,15.80
2022-08-31T22:21:47.745Z,15.70
2022-08-31T22:26:43.694Z,15.60
2022-08-31T22:31:40.861Z,15.50
2022-08-31T22:36:38.223Z,15.50
2022-08-31T22:41:32.624Z,15.40
2022-08-31T22:46:26.103Z,15.40
2022-08-31T22:51:19.957Z,15.40
2022-08-31T22:56:18.273Z,15.20
2022-08-31T23:01:27.231Z,15.10
2022-08-31T23:06:22.842Z,15.00
2022-08-31T23:11:19.489Z,15.10
2022-08-31T23:16:15.895Z,15.00
2022-08-31T23:21:09.785Z,14.90
2022-08-31T23:26:09.966Z,14.80
2022-08-31T23:31:02.405Z,14.70
2022-08-31T23:35:56.345Z,14.60
2022-08-31T23:40:49.511Z,14.60
2022-08-31T23:45:45.569Z,14.50
2022-08-31T23:50:37.821Z,14.50
2022-08-31T23:55:31.285Z,14.50
